createdAt,value
2022-10-21T00:06:04.353Z,20.20
2022-10-21T00:21:11.014Z,20.20
2022-10-21T00:36:15.942Z,20.20
2022-10-21T00:51:20.373Z,20.10
2022-10-21T01:06:27.412Z,20.10
2022-10-21T01:21:37.619Z,20.00
2022-10-21T01:36:49.392Z,20.10
2022-10-21T01:51:55.094Z,20.00
2022-10-21T02:06:59.470Z,19.90
2022-10-21T02:22:07.178Z,19.70
2022-10-21T02:37:22.523Z,19.40
2022-10-21T02:52:27.033Z,19.40
2022-10-21T03:07:31.367Z,20.00
2022-10-21T03:22:35.945Z,19.90
2022-10-21T03:37:40.299Z,19.90
2022-10-21T03:52:44.865Z,19.90
2022-10-21T04:07:52.206Z,19.90
2022-10-21T04:22:57.936Z,19.70
2022-10-21T04:38:02.320Z,19.70
2022-10-21T04:53:06.716Z,19.70
2022-10-21T05:08:11.784Z,19.70
2022-10-21T05:23:16.367Z,19.80
2022-10-21T05:38:20.815Z,19.90
2022-10-21T05:53:25.582Z,19.80
2022-10-21T06:08:31.851Z,19.80
2022-10-21T06:23:36.639Z,19.90
2022-10-21T06:38:41.104Z,19.80
2022-10-21T06:53:46.336Z,19.80
2022-10-21T07:08:57.820Z,19.80
2022-10-21T07:24:03.057Z,19.70
2022-10-21T07:39:10.629Z,19.70
2022-10-21T07:54:16.041Z,19.70
2022-10-21T08:09:20.542Z,19.70
2022-10-21T08:24:25.008Z,19.90
2022-10-21T08:39:29.597Z,20.00
2022-10-21T08:54:42.127Z,20.10
2022-10-21T09:09:53.184Z,20.20
2022-10-21T09:25:01.232Z,20.30
2022-10-21T09:40:14.655Z,20.70
2022-10-21T09:55:19.411Z,20.70
2022-10-21T10:10:33.198Z,20.70
2022-10-21T10:25:38.762Z,21.10
2022-10-21T10:40:45.124Z,21.70
2022-10-21T10:55:56.433Z,21.90
2022-10-21T11:11:05.588Z,22.40
2022-10-21T11:26:20.040Z,22.40
2022-10-21T11:41:33.464Z,22.70
2022-10-21T11:56:43.169Z,22.70
2022-10-21T12:11:52.527Z,22.50
2022-10-21T12:27:04.530Z,22.50
2022-10-21T12:42:14.174Z,22.60
2022-10-21T12:57:27.484Z,22.70
2022-10-21T13:12:33.647Z,22.60
2022-10-21T13:27:39.407Z,22.90
2022-10-21T13:42:49.259Z,23.00
2022-10-21T13:57:56.094Z,23.10
2022-10-21T14:13:01.577Z,23.00
2022-10-21T14:28:06.573Z,22.90
2022-10-21T14:43:21.670Z,23.00
2022-10-21T14:58:29.643Z,23.00
2022-10-21T15:13:34.859Z,23.20
2022-10-21T15:28:41.643Z,23.60
2022-10-21T15:43:54.715Z,22.70
2022-10-21T15:58:59.077Z,22.50
2022-10-21T16:14:03.433Z,22.20
2022-10-21T16:29:08.184Z,22.00
2022-10-21T16:44:12.619Z,21.90
2022-10-21T16:59:16.930Z,21.80
2022-10-21T17:14:22.048Z,21.60
2022-10-21T17:29:26.470Z,21.70
2022-10-21T17:44:31.056Z,21.70
2022-10-21T17:59:35.449Z,21.60
2022-10-21T18:14:39.845Z,21.60
2022-10-21T18:29:44.381Z,21.50
2022-10-21T18:44:48.737Z,21.40
2022-10-21T18:59:54.437Z,21.30
2022-10-21T19:14:58.764Z,21.10
2022-10-21T19:30:03.256Z,21.00
2022-10-21T19:45:10.411Z,20.90
2022-10-21T20:00:15.429Z,20.80
2022-10-21T20:15:19.980Z,20.50
2022-10-21T20:30:24.600Z,20.40
2022-10-21T20:45:29.266Z,20.40
2022-10-21T21:00:33.605Z,20.30
2022-10-21T21:15:37.986Z,20.20
2022-10-21T21:30:42.340Z,19.90
2022-10-21T21:45:47.604Z,20.00
2022-10-21T22:00:51.951Z,19.80
2022-10-21T22:15:56.305Z,19.80
2022-10-21T22:31:02.929Z,19.90
2022-10-21T22:46:22.156Z,19.90
2022-10-21T23:01:32.508Z,19.70
2022-10-21T23:16:37.238Z,19.60
2022-10-21T23:31:41.786Z,19.40
2022-10-21T23:46:46.180Z,19.00
